sensor_id;sensor_type;location;lat;lon;timestamp;P1;durP1;ratioP1;P2;durP2;ratioP2
15246;SDS011;7726;48.820;9.248;2022-10-14T00:01:57;13.40;;;9.90;;
15246;SDS011;7726;48.820;9.248;2022-10-14T00:04:24;12.55;;;9.18;;
15246;SDS011;7726;48.820;9.248;2022-10-14T00:06:52;12.25;;;9.48;;
15246;SDS011;7726;48.820;9.248;2022-10-14T00:09:19;12.35;;;9.43;;
15246;SDS011;7726;48.820;9.248;2022-10-14T00:11:46;12.35;;;9.80;;
15246;SDS011;7726;48.820;9.248;2022-10-14T00:14:14;11.60;;;9.90;;
15246;SDS011;7726;48.820;9.248;2022-10-14T00:16:42;14.95;;;9.75;;
15246;SDS011;7726;48.820;9.248;2022-10-14T00:19:10;16.17;;;9.95;;
15246;SDS011;7726;48.820;9.248;2022-10-14T00:21:38;14.80;;;10.45;;
15246;SDS011;7726;48.820;9.248;2022-10-14T00:24:08;11.10;;;9.70;;
15246;SDS011;7726;48.820;9.248;2022-10-14T00:26:37;13.25;;;10.13;;
15246;SDS011;7726;48.820;9.248;2022-10-14T00:29:06;13.00;;;10.55;;
15246;SDS011;7726;48.820;9.248;2022-10-14T00:31:33;13.38;;;9.82;;
15246;SDS011;7726;48.820;9.248;2022-10-14T00:34:01;11.65;;;9.52;;
15246;SDS011;7726;48.820;9.248;2022-10-14T00:36:28;14.38;;;10.32;;
15246;SDS011;7726;48.820;9.248;2022-10-14T00:38:55;11.68;;;9.90;;
15246;SDS011;7726;48.820;9.248;2022-10-14T00:41:25;14.32;;;9.63;;
15246;SDS011;7726;48.820;9.248;2022-10-14T00:43:54;14.05;;;10.05;;
15246;SDS011;7726;48.820;9.248;2022-10-14T00:46:22;13.20;;;10.25;;
15246;SDS011;7726;48.820;9.248;2022-10-14T00:48:49;12.32;;;9.63;;
15246;SDS011;7726;48.820;9.248;2022-10-14T00:51:16;12.57;;;9.95;;
15246;SDS011;7726;48.820;9.248;2022-10-14T00:53:44;16.13;;;11.20;;
15246;SDS011;7726;48.820;9.248;2022-10-14T00:56:12;15.73;;;12.57;;
15246;SDS011;7726;48.820;9.248;2022-10-14T00:58:42;13.95;;;12.60;;
15246;SDS011;7726;48.820;9.248;2022-10-14T01:01:10;14.52;;;11.82;;
15246;SDS011;7726;48.820;9.248;2022-10-14T01:03:38;16.05;;;10.50;;
15246;SDS011;7726;48.820;9.248;2022-10-14T01:06:08;12.13;;;10.05;;
15246;SDS011;7726;48.820;9.248;2022-10-14T01:08:42;12.05;;;10.00;;
15246;SDS011;7726;48.820;9.248;2022-10-14T01:11:12;11.82;;;9.20;;
15246;SDS011;7726;48.820;9.248;2022-10-14T01:13:44;11.75;;;8.50;;
15246;SDS011;7726;48.820;9.248;2022-10-14T01:16:15;11.70;;;9.30;;
15246;SDS011;7726;48.820;9.248;2022-10-14T01:18:48;11.68;;;8.13;;
15246;SDS011;7726;48.820;9.248;2022-10-14T01:21:19;10.77;;;8.68;;
15246;SDS011;7726;48.820;9.248;2022-10-14T01:23:59;11.65;;;8.48;;
15246;SDS011;7726;48.820;9.248;2022-10-14T01:26:38;10.82;;;7.85;;
15246;SDS011;7726;48.820;9.248;2022-10-14T01:29:13;9.57;;;8.13;;
15246;SDS011;7726;48.820;9.248;2022-10-14T01:31:44;10.10;;;8.15;;
15246;SDS011;7726;48.820;9.248;2022-10-14T01:34:13;9.70;;;7.68;;
15246;SDS011;7726;48.820;9.248;2022-10-14T01:36:44;10.43;;;7.95;;
15246;SDS011;7726;48.820;9.248;2022-10-14T01:39:14;11.25;;;7.38;;
15246;SDS011;7726;48.820;9.248;2022-10-14T01:41:42;13.27;;;8.23;;
15246;SDS011;7726;48.820;9.248;2022-10-14T01:44:11;11.52;;;7.63;;
15246;SDS011;7726;48.820;9.248;2022-10-14T01:46:40;8.57;;;7.35;;
15246;SDS011;7726;48.820;9.248;2022-10-14T01:49:11;13.68;;;8.40;;
15246;SDS011;7726;48.820;9.248;2022-10-14T01:51:40;8.82;;;7.35;;
15246;SDS011;7726;48.820;9.248;2022-10-14T01:54:10;9.32;;;7.55;;
15246;SDS011;7726;48.820;9.248;2022-10-14T01:56:38;11.65;;;7.53;;
15246;SDS011;7726;48.820;9.248;2022-10-14T01:59:07;11.73;;;7.15;;
15246;SDS011;7726;48.820;9.248;2022-10-14T02:01:36;8.45;;;6.63;;
15246;SDS011;7726;48.820;9.248;2022-10-14T02:04:12;10.07;;;6.78;;
15246;SDS011;7726;48.820;9.248;2022-10-14T02:06:39;9.27;;;7.60;;
15246;SDS011;7726;48.820;9.248;2022-10-14T02:09:10;12.02;;;7.93;;
15246;SDS011;7726;48.820;9.248;2022-10-14T02:11:40;10.75;;;8.00;;
15246;SDS011;7726;48.820;9.248;2022-10-14T02:14:13;12.98;;;7.10;;
15246;SDS011;7726;48.820;9.248;2022-10-14T02:16:45;11.55;;;7.68;;
15246;SDS011;7726;48.820;9.248;2022-10-14T02:19:18;12.35;;;7.63;;
15246;SDS011;7726;48.820;9.248;2022-10-14T02:21:50;8.88;;;7.63;;
15246;SDS011;7726;48.820;9.248;2022-10-14T02:24:19;10.25;;;8.30;;
15246;SDS011;7726;48.820;9.248;2022-10-14T02:26:49;9.40;;;7.38;;
15246;SDS011;7726;48.820;9.248;2022-10-14T02:29:16;10.60;;;8.45;;
15246;SDS011;7726;48.820;9.248;2022-10-14T02:31:45;9.05;;;7.22;;
15246;SDS011;7726;48.820;9.248;2022-10-14T02:34:13;9.25;;;7.28;;
15246;SDS011;7726;48.820;9.248;2022-10-14T02:36:43;11.88;;;7.55;;
15246;SDS011;7726;48.820;9.248;2022-10-14T02:39:11;10.23;;;7.43;;
15246;SDS011;7726;48.820;9.248;2022-10-14T02:41:39;8.35;;;6.60;;
15246;SDS011;7726;48.820;9.248;2022-10-14T02:44:07;9.52;;;5.80;;
15246;SDS011;7726;48.820;9.248;2022-10-14T02:46:34;5.97;;;5.32;;
15246;SDS011;7726;48.820;9.248;2022-10-14T02:49:01;11.02;;;5.63;;
15246;SDS011;7726;48.820;9.248;2022-10-14T02:51:28;6.07;;;5.25;;
15246;SDS011;7726;48.820;9.248;2022-10-14T02:53:57;5.78;;;4.80;;
15246;SDS011;7726;48.820;9.248;2022-10-14T02:56:25;6.68;;;4.72;;
15246;SDS011;7726;48.820;9.248;2022-10-14T02:58:52;6.05;;;4.57;;
15246;SDS011;7726;48.820;9.248;2022-10-14T03:01:20;10.00;;;4.57;;
15246;SDS011;7726;48.820;9.248;2022-10-14T03:03:47;6.32;;;4.50;;
15246;SDS011;7726;48.820;9.248;2022-10-14T03:06:14;7.55;;;4.55;;
15246;SDS011;7726;48.820;9.248;2022-10-14T03:08:41;8.07;;;4.60;;
15246;SDS011;7726;48.820;9.248;2022-10-14T03:11:09;7.90;;;4.38;;
15246;SDS011;7726;48.820;9.248;2022-10-14T03:13:36;6.15;;;4.57;;
15246;SDS011;7726;48.820;9.248;2022-10-14T03:16:04;5.90;;;4.25;;
15246;SDS011;7726;48.820;9.248;2022-10-14T03:18:31;6.88;;;4.45;;
15246;SDS011;7726;48.820;9.248;2022-10-14T03:20:58;6.47;;;4.60;;
15246;SDS011;7726;48.820;9.248;2022-10-14T03:23:25;7.40;;;4.85;;
15246;SDS011;7726;48.820;9.248;2022-10-14T03:25:52;6.28;;;4.55;;
15246;SDS011;7726;48.820;9.248;2022-10-14T03:28:20;5.22;;;4.05;;
15246;SDS011;7726;48.820;9.248;2022-10-14T03:30:48;6.43;;;4.50;;
15246;SDS011;7726;48.820;9.248;2022-10-14T03:33:15;7.25;;;4.15;;
15246;SDS011;7726;48.820;9.248;2022-10-14T03:35:42;6.70;;;4.53;;
15246;SDS011;7726;48.820;9.248;2022-10-14T03:38:09;7.25;;;4.53;;
15246;SDS011;7726;48.820;9.248;2022-10-14T03:40:36;8.75;;;4.53;;
15246;SDS011;7726;48.820;9.248;2022-10-14T03:43:03;8.23;;;4.95;;
15246;SDS011;7726;48.820;9.248;2022-10-14T03:45:31;5.78;;;4.38;;
15246;SDS011;7726;48.820;9.248;2022-10-14T03:47:58;9.10;;;5.00;;
15246;SDS011;7726;48.820;9.248;2022-10-14T03:50:26;9.82;;;5.18;;
15246;SDS011;7726;48.820;9.248;2022-10-14T03:52:53;8.00;;;5.07;;
15246;SDS011;7726;48.820;9.248;2022-10-14T03:55:20;8.30;;;4.88;;
15246;SDS011;7726;48.820;9.248;2022-10-14T03:57:47;6.40;;;5.10;;
15246;SDS011;7726;48.820;9.248;2022-10-14T04:00:15;5.18;;;4.68;;
15246;SDS011;7726;48.820;9.248;2022-10-14T04:02:43;7.53;;;5.28;;
15246;SDS011;7726;48.820;9.248;2022-10-14T04:05:10;7.85;;;4.93;;
15246;SDS011;7726;48.820;9.248;2022-10-14T04:07:38;10.40;;;5.65;;
15246;SDS011;7726;48.820;9.248;2022-10-14T04:10:05;7.38;;;5.47;;
15246;SDS011;7726;48.820;9.248;2022-10-14T04:12:33;6.90;;;5.57;;
15246;SDS011;7726;48.820;9.248;2022-10-14T04:15:00;9.60;;;5.55;;
15246;SDS011;7726;48.820;9.248;2022-10-14T04:17:27;7.50;;;5.10;;
15246;SDS011;7726;48.820;9.248;2022-10-14T04:19:56;7.47;;;5.23;;
15246;SDS011;7726;48.820;9.248;2022-10-14T04:22:23;7.78;;;5.18;;
15246;SDS011;7726;48.820;9.248;2022-10-14T04:24:50;7.57;;;5.30;;
15246;SDS011;7726;48.820;9.248;2022-10-14T04:27:17;10.18;;;5.43;;
15246;SDS011;7726;48.820;9.248;2022-10-14T04:29:44;10.90;;;5.68;;
15246;SDS011;7726;48.820;9.248;2022-10-14T04:32:11;8.45;;;5.43;;
15246;SDS011;7726;48.820;9.248;2022-10-14T04:34:38;7.93;;;5.78;;
15246;SDS011;7726;48.820;9.248;2022-10-14T04:37:06;8.95;;;6.00;;
15246;SDS011;7726;48.820;9.248;2022-10-14T04:39:34;7.43;;;5.47;;
15246;SDS011;7726;48.820;9.248;2022-10-14T04:42:01;6.65;;;5.70;;
15246;SDS011;7726;48.820;9.248;2022-10-14T04:44:28;6.57;;;5.80;;
15246;SDS011;7726;48.820;9.248;2022-10-14T04:46:55;8.48;;;6.05;;
15246;SDS011;7726;48.820;9.248;2022-10-14T04:49:22;10.73;;;6.13;;
15246;SDS011;7726;48.820;9.248;2022-10-14T04:51:49;7.15;;;6.15;;
15246;SDS011;7726;48.820;9.248;2022-10-14T04:54:18;8.13;;;6.47;;
15246;SDS011;7726;48.820;9.248;2022-10-14T04:56:45;9.77;;;6.70;;
15246;SDS011;7726;48.820;9.248;2022-10-14T04:59:12;10.15;;;6.97;;
15246;SDS011;7726;48.820;9.248;2022-10-14T05:01:39;8.70;;;7.80;;
15246;SDS011;7726;48.820;9.248;2022-10-14T05:04:06;11.35;;;8.43;;
15246;SDS011;7726;48.820;9.248;2022-10-14T05:06:33;10.48;;;7.70;;
15246;SDS011;7726;48.820;9.248;2022-10-14T05:09:01;12.98;;;7.68;;
15246;SDS011;7726;48.820;9.248;2022-10-14T05:11:29;12.10;;;8.43;;
15246;SDS011;7726;48.820;9.248;2022-10-14T05:13:57;9.77;;;7.97;;
15246;SDS011;7726;48.820;9.248;2022-10-14T05:16:24;10.02;;;8.27;;
15246;SDS011;7726;48.820;9.248;2022-10-14T05:18:51;10.35;;;8.52;;
15246;SDS011;7726;48.820;9.248;2022-10-14T05:21:19;11.48;;;8.45;;
15246;SDS011;7726;48.820;9.248;2022-10-14T05:23:46;13.15;;;8.95;;
15246;SDS011;7726;48.820;9.248;2022-10-14T05:26:13;12.10;;;8.68;;
15246;SDS011;7726;48.820;9.248;2022-10-14T05:28:41;12.75;;;8.95;;
15246;SDS011;7726;48.820;9.248;2022-10-14T05:31:08;10.60;;;8.02;;
15246;SDS011;7726;48.820;9.248;2022-10-14T05:33:35;11.40;;;8.13;;
15246;SDS011;7726;48.820;9.248;2022-10-14T05:36:03;11.57;;;7.70;;
15246;SDS011;7726;48.820;9.248;2022-10-14T05:38:30;13.30;;;9.23;;
15246;SDS011;7726;48.820;9.248;2022-10-14T05:40:58;11.18;;;8.60;;
15246;SDS011;7726;48.820;9.248;2022-10-14T05:43:25;12.38;;;8.48;;
15246;SDS011;7726;48.820;9.248;2022-10-14T05:45:53;10.32;;;8.23;;
15246;SDS011;7726;48.820;9.248;2022-10-14T05:48:20;14.82;;;8.32;;
15246;SDS011;7726;48.820;9.248;2022-10-14T05:50:47;14.88;;;8.50;;
15246;SDS011;7726;48.820;9.248;2022-10-14T05:53:14;12.60;;;8.15;;
15246;SDS011;7726;48.820;9.248;2022-10-14T05:55:42;10.98;;;8.00;;
15246;SDS011;7726;48.820;9.248;2022-10-14T05:58:09;11.27;;;8.43;;
15246;SDS011;7726;48.820;9.248;2022-10-14T06:00:36;11.50;;;7.55;;
15246;SDS011;7726;48.820;9.248;2022-10-14T06:03:04;10.57;;;8.02;;
15246;SDS011;7726;48.820;9.248;2022-10-14T06:05:33;12.65;;;8.43;;
15246;SDS011;7726;48.820;9.248;2022-10-14T06:08:01;10.50;;;7.95;;
15246;SDS011;7726;48.820;9.248;2022-10-14T06:10:29;12.35;;;9.18;;
15246;SDS011;7726;48.820;9.248;2022-10-14T06:12:56;12.40;;;9.57;;
15246;SDS011;7726;48.820;9.248;2022-10-14T06:15:23;13.10;;;9.45;;
15246;SDS011;7726;48.820;9.248;2022-10-14T06:17:52;12.27;;;9.35;;
15246;SDS011;7726;48.820;9.248;2022-10-14T06:20:20;14.43;;;9.25;;
15246;SDS011;7726;48.820;9.248;2022-10-14T06:22:47;14.60;;;10.10;;
15246;SDS011;7726;48.820;9.248;2022-10-14T06:25:14;11.32;;;9.45;;
15246;SDS011;7726;48.820;9.248;2022-10-14T06:27:41;11.45;;;9.48;;
15246;SDS011;7726;48.820;9.248;2022-10-14T06:30:09;11.63;;;9.73;;
15246;SDS011;7726;48.820;9.248;2022-10-14T06:32:37;13.15;;;10.20;;
15246;SDS011;7726;48.820;9.248;2022-10-14T06:35:04;11.13;;;9.05;;
15246;SDS011;7726;48.820;9.248;2022-10-14T06:37:33;13.40;;;9.95;;
15246;SDS011;7726;48.820;9.248;2022-10-14T06:40:00;10.75;;;9.13;;
15246;SDS011;7726;48.820;9.248;2022-10-14T06:42:27;12.05;;;10.50;;
15246;SDS011;7726;48.820;9.248;2022-10-14T06:44:54;22.48;;;11.70;;
15246;SDS011;7726;48.820;9.248;2022-10-14T06:47:21;16.73;;;11.15;;
15246;SDS011;7726;48.820;9.248;2022-10-14T06:49:48;14.93;;;10.43;;
15246;SDS011;7726;48.820;9.248;2022-10-14T06:52:15;12.10;;;10.32;;
15246;SDS011;7726;48.820;9.248;2022-10-14T06:54:44;14.00;;;10.43;;
15246;SDS011;7726;48.820;9.248;2022-10-14T06:57:11;13.38;;;9.63;;
15246;SDS011;7726;48.820;9.248;2022-10-14T06:59:38;14.35;;;9.93;;
15246;SDS011;7726;48.820;9.248;2022-10-14T07:02:05;12.50;;;9.43;;
15246;SDS011;7726;48.820;9.248;2022-10-14T07:04:32;13.10;;;9.00;;
15246;SDS011;7726;48.820;9.248;2022-10-14T07:06:59;13.55;;;8.27;;
15246;SDS011;7726;48.820;9.248;2022-10-14T07:09:27;12.48;;;7.88;;
15246;SDS011;7726;48.820;9.248;2022-10-14T07:11:55;10.05;;;8.25;;
15246;SDS011;7726;48.820;9.248;2022-10-14T07:14:22;10.45;;;8.20;;
15246;SDS011;7726;48.820;9.248;2022-10-14T07:16:49;9.25;;;7.13;;
15246;SDS011;7726;48.820;9.248;2022-10-14T07:19:17;12.63;;;7.38;;
15246;SDS011;7726;48.820;9.248;2022-10-14T07:21:44;10.82;;;7.57;;
15246;SDS011;7726;48.820;9.248;2022-10-14T07:24:11;9.40;;;7.57;;
15246;SDS011;7726;48.820;9.248;2022-10-14T07:26:38;8.73;;;7.55;;
15246;SDS011;7726;48.820;9.248;2022-10-14T07:29:07;11.02;;;9.02;;
15246;SDS011;7726;48.820;9.248;2022-10-14T07:31:34;11.90;;;7.53;;
15246;SDS011;7726;48.820;9.248;2022-10-14T07:34:01;8.80;;;7.13;;
15246;SDS011;7726;48.820;9.248;2022-10-14T07:36:28;10.10;;;7.43;;
15246;SDS011;7726;48.820;9.248;2022-10-14T07:38:55;9.55;;;6.53;;
15246;SDS011;7726;48.820;9.248;2022-10-14T07:41:23;7.50;;;5.90;;
15246;SDS011;7726;48.820;9.248;2022-10-14T07:43:51;8.98;;;7.22;;
15246;SDS011;7726;48.820;9.248;2022-10-14T07:46:21;6.72;;;5.93;;
15246;SDS011;7726;48.820;9.248;2022-10-14T07:48:53;11.70;;;6.60;;
15246;SDS011;7726;48.820;9.248;2022-10-14T07:51:20;8.18;;;5.88;;
15246;SDS011;7726;48.820;9.248;2022-10-14T07:53:47;8.68;;;6.03;;
15246;SDS011;7726;48.820;9.248;2022-10-14T07:56:16;7.63;;;5.85;;
15246;SDS011;7726;48.820;9.248;2022-10-14T07:58:44;6.50;;;5.35;;
15246;SDS011;7726;48.820;9.248;2022-10-14T08:01:11;7.18;;;5.57;;
15246;SDS011;7726;48.820;9.248;2022-10-14T08:03:40;9.25;;;5.47;;
15246;SDS011;7726;48.820;9.248;2022-10-14T08:06:08;9.45;;;6.15;;
15246;SDS011;7726;48.820;9.248;2022-10-14T08:08:35;7.75;;;5.55;;
15246;SDS011;7726;48.820;9.248;2022-10-14T08:11:03;7.55;;;5.63;;
15246;SDS011;7726;48.820;9.248;2022-10-14T08:13:31;6.97;;;5.18;;
15246;SDS011;7726;48.820;9.248;2022-10-14T08:15:58;8.02;;;5.13;;
15246;SDS011;7726;48.820;9.248;2022-10-14T08:18:25;5.90;;;5.30;;
15246;SDS011;7726;48.820;9.248;2022-10-14T08:20:54;6.05;;;5.45;;
15246;SDS011;7726;48.820;9.248;2022-10-14T08:23:21;5.82;;;5.20;;
15246;SDS011;7726;48.820;9.248;2022-10-14T08:25:48;5.43;;;4.93;;
15246;SDS011;7726;48.820;9.248;2022-10-14T08:28:15;8.55;;;5.50;;
15246;SDS011;7726;48.820;9.248;2022-10-14T08:30:43;5.47;;;4.85;;
15246;SDS011;7726;48.820;9.248;2022-10-14T08:33:10;5.85;;;4.40;;
15246;SDS011;7726;48.820;9.248;2022-10-14T08:35:38;6.90;;;5.47;;
15246;SDS011;7726;48.820;9.248;2022-10-14T08:38:06;6.68;;;5.03;;
15246;SDS011;7726;48.820;9.248;2022-10-14T08:40:37;8.20;;;4.93;;
15246;SDS011;7726;48.820;9.248;2022-10-14T08:43:12;7.43;;;4.70;;
15246;SDS011;7726;48.820;9.248;2022-10-14T08:45:41;6.35;;;4.47;;
15246;SDS011;7726;48.820;9.248;2022-10-14T08:48:11;4.90;;;4.25;;
15246;SDS011;7726;48.820;9.248;2022-10-14T08:50:40;7.15;;;4.07;;
15246;SDS011;7726;48.820;9.248;2022-10-14T08:53:12;5.82;;;4.35;;
15246;SDS011;7726;48.820;9.248;2022-10-14T08:55:42;8.68;;;4.32;;
15246;SDS011;7726;48.820;9.248;2022-10-14T08:58:11;5.97;;;4.75;;
15246;SDS011;7726;48.820;9.248;2022-10-14T09:00:39;7.20;;;5.25;;
15246;SDS011;7726;48.820;9.248;2022-10-14T09:03:12;8.98;;;5.30;;
15246;SDS011;7726;48.820;9.248;2022-10-14T09:05:41;5.68;;;4.43;;
15246;SDS011;7726;48.820;9.248;2022-10-14T09:08:09;5.13;;;4.50;;
15246;SDS011;7726;48.820;9.248;2022-10-14T09:10:40;8.27;;;5.10;;
15246;SDS011;7726;48.820;9.248;2022-10-14T09:13:09;6.32;;;4.72;;
15246;SDS011;7726;48.820;9.248;2022-10-14T09:15:37;7.53;;;5.50;;
15246;SDS011;7726;48.820;9.248;2022-10-14T09:18:06;7.55;;;5.25;;
15246;SDS011;7726;48.820;9.248;2022-10-14T09:20:38;5.50;;;4.95;;
15246;SDS011;7726;48.820;9.248;2022-10-14T09:23:11;7.47;;;4.97;;
15246;SDS011;7726;48.820;9.248;2022-10-14T09:25:43;5.80;;;5.20;;
15246;SDS011;7726;48.820;9.248;2022-10-14T09:28:12;9.63;;;4.82;;
15246;SDS011;7726;48.820;9.248;2022-10-14T09:30:39;5.70;;;4.97;;
15246;SDS011;7726;48.820;9.248;2022-10-14T09:33:08;6.35;;;5.25;;
15246;SDS011;7726;48.820;9.248;2022-10-14T09:35:39;6.38;;;4.95;;
15246;SDS011;7726;48.820;9.248;2022-10-14T09:38:06;6.15;;;4.68;;
15246;SDS011;7726;48.820;9.248;2022-10-14T09:40:35;8.40;;;4.72;;
15246;SDS011;7726;48.820;9.248;2022-10-14T09:43:05;6.50;;;5.10;;
15246;SDS011;7726;48.820;9.248;2022-10-14T09:45:51;5.53;;;5.05;;
15246;SDS011;7726;48.820;9.248;2022-10-14T09:48:22;7.07;;;5.20;;
15246;SDS011;7726;48.820;9.248;2022-10-14T09:50:54;9.77;;;5.10;;
15246;SDS011;7726;48.820;9.248;2022-10-14T09:53:24;7.38;;;5.43;;
15246;SDS011;7726;48.820;9.248;2022-10-14T09:55:53;6.95;;;5.25;;
15246;SDS011;7726;48.820;9.248;2022-10-14T09:58:24;6.68;;;5.20;;
15246;SDS011;7726;48.820;9.248;2022-10-14T10:00:54;5.20;;;4.35;;
15246;SDS011;7726;48.820;9.248;2022-10-14T10:03:27;6.38;;;4.68;;
15246;SDS011;7726;48.820;9.248;2022-10-14T10:06:03;5.10;;;4.53;;
15246;SDS011;7726;48.820;9.248;2022-10-14T10:08:32;6.30;;;4.40;;
15246;SDS011;7726;48.820;9.248;2022-10-14T10:11:00;9.52;;;4.43;;
15246;SDS011;7726;48.820;9.248;2022-10-14T10:13:33;3.90;;;3.60;;
15246;SDS011;7726;48.820;9.248;2022-10-14T10:16:03;6.15;;;4.25;;
15246;SDS011;7726;48.820;9.248;2022-10-14T10:18:30;4.90;;;4.15;;
15246;SDS011;7726;48.820;9.248;2022-10-14T10:21:04;4.45;;;3.97;;
15246;SDS011;7726;48.820;9.248;2022-10-14T10:23:33;4.25;;;3.60;;
15246;SDS011;7726;48.820;9.248;2022-10-14T10:26:13;5.03;;;3.95;;
15246;SDS011;7726;48.820;9.248;2022-10-14T10:28:44;8.13;;;4.03;;
15246;SDS011;7726;48.820;9.248;2022-10-14T10:31:16;4.35;;;3.95;;
15246;SDS011;7726;48.820;9.248;2022-10-14T10:33:47;6.45;;;4.32;;
15246;SDS011;7726;48.820;9.248;2022-10-14T10:36:20;6.97;;;4.00;;
15246;SDS011;7726;48.820;9.248;2022-10-14T10:38:55;4.60;;;4.20;;
15246;SDS011;7726;48.820;9.248;2022-10-14T10:41:26;5.05;;;3.60;;
15246;SDS011;7726;48.820;9.248;2022-10-14T10:44:02;3.95;;;3.33;;
15246;SDS011;7726;48.820;9.248;2022-10-14T10:46:36;5.38;;;3.88;;
15246;SDS011;7726;48.820;9.248;2022-10-14T10:49:08;4.57;;;3.63;;
15246;SDS011;7726;48.820;9.248;2022-10-14T10:51:43;7.15;;;5.10;;
15246;SDS011;7726;48.820;9.248;2022-10-14T10:54:14;4.88;;;4.00;;
15246;SDS011;7726;48.820;9.248;2022-10-14T10:56:47;4.72;;;4.28;;
15246;SDS011;7726;48.820;9.248;2022-10-14T10:59:30;6.72;;;4.18;;
15246;SDS011;7726;48.820;9.248;2022-10-14T11:02:05;5.30;;;4.22;;
15246;SDS011;7726;48.820;9.248;2022-10-14T11:04:42;4.38;;;3.97;;
15246;SDS011;7726;48.820;9.248;2022-10-14T11:07:12;5.47;;;3.92;;
15246;SDS011;7726;48.820;9.248;2022-10-14T11:10:01;5.25;;;4.05;;
15246;SDS011;7726;48.820;9.248;2022-10-14T11:12:58;6.00;;;4.32;;
15246;SDS011;7726;48.820;9.248;2022-10-14T11:15:40;7.85;;;4.70;;
15246;SDS011;7726;48.820;9.248;2022-10-14T11:18:08;6.18;;;4.28;;
15246;SDS011;7726;48.820;9.248;2022-10-14T11:20:41;6.53;;;4.45;;
15246;SDS011;7726;48.820;9.248;2022-10-14T11:23:23;5.25;;;4.18;;
15246;SDS011;7726;48.820;9.248;2022-10-14T11:25:53;5.05;;;4.57;;
15246;SDS011;7726;48.820;9.248;2022-10-14T11:28:24;5.45;;;3.92;;
15246;SDS011;7726;48.820;9.248;2022-10-14T11:30:57;6.40;;;4.25;;
15246;SDS011;7726;48.820;9.248;2022-10-14T11:33:32;6.38;;;4.40;;
15246;SDS011;7726;48.820;9.248;2022-10-14T11:36:06;5.22;;;4.68;;
15246;SDS011;7726;48.820;9.248;2022-10-14T11:38:41;5.57;;;3.83;;
15246;SDS011;7726;48.820;9.248;2022-10-14T11:41:11;4.90;;;3.53;;
15246;SDS011;7726;48.820;9.248;2022-10-14T11:43:44;6.32;;;3.30;;
15246;SDS011;7726;48.820;9.248;2022-10-14T11:46:19;4.80;;;3.03;;
15246;SDS011;7726;48.820;9.248;2022-10-14T11:48:47;3.92;;;3.15;;
15246;SDS011;7726;48.820;9.248;2022-10-14T11:51:17;5.45;;;3.58;;
15246;SDS011;7726;48.820;9.248;2022-10-14T11:53:52;5.50;;;2.88;;
15246;SDS011;7726;48.820;9.248;2022-10-14T11:56:23;5.30;;;3.10;;
15246;SDS011;7726;48.820;9.248;2022-10-14T11:58:53;3.60;;;2.78;;
15246;SDS011;7726;48.820;9.248;2022-10-14T12:01:41;5.10;;;3.35;;
15246;SDS011;7726;48.820;9.248;2022-10-14T12:04:11;3.40;;;2.67;;
15246;SDS011;7726;48.820;9.248;2022-10-14T12:06:41;5.13;;;2.92;;
15246;SDS011;7726;48.820;9.248;2022-10-14T12:09:10;4.05;;;2.85;;
15246;SDS011;7726;48.820;9.248;2022-10-14T12:11:41;3.92;;;2.90;;
15246;SDS011;7726;48.820;9.248;2022-10-14T12:14:10;4.97;;;2.60;;
15246;SDS011;7726;48.820;9.248;2022-10-14T12:16:40;4.00;;;2.67;;
15246;SDS011;7726;48.820;9.248;2022-10-14T12:19:10;3.47;;;2.58;;
15246;SDS011;7726;48.820;9.248;2022-10-14T12:21:39;5.53;;;3.05;;
15246;SDS011;7726;48.820;9.248;2022-10-14T12:24:11;2.85;;;2.58;;
15246;SDS011;7726;48.820;9.248;2022-10-14T12:26:45;5.43;;;2.63;;
15246;SDS011;7726;48.820;9.248;2022-10-14T12:29:15;3.47;;;2.65;;
15246;SDS011;7726;48.820;9.248;2022-10-14T12:31:46;3.95;;;2.50;;
15246;SDS011;7726;48.820;9.248;2022-10-14T12:36:57;5.90;;;2.58;;
15246;SDS011;7726;48.820;9.248;2022-10-14T12:39:29;3.28;;;2.33;;
15246;SDS011;7726;48.820;9.248;2022-10-14T12:41:58;3.40;;;2.38;;
15246;SDS011;7726;48.820;9.248;2022-10-14T12:44:28;3.53;;;2.40;;
15246;SDS011;7726;48.820;9.248;2022-10-14T12:46:58;3.72;;;1.83;;
15246;SDS011;7726;48.820;9.248;2022-10-14T12:49:26;2.97;;;2.33;;
15246;SDS011;7726;48.820;9.248;2022-10-14T12:51:54;2.60;;;2.30;;
15246;SDS011;7726;48.820;9.248;2022-10-14T12:54:23;3.15;;;2.17;;
15246;SDS011;7726;48.820;9.248;2022-10-14T12:56:55;2.58;;;1.95;;
15246;SDS011;7726;48.820;9.248;2022-10-14T12:59:23;2.20;;;1.88;;
15246;SDS011;7726;48.820;9.248;2022-10-14T13:01:53;5.97;;;2.65;;
15246;SDS011;7726;48.820;9.248;2022-10-14T13:04:21;3.40;;;2.58;;
15246;SDS011;7726;48.820;9.248;2022-10-14T13:09:35;3.83;;;2.35;;
15246;SDS011;7726;48.820;9.248;2022-10-14T13:15:00;2.85;;;1.90;;
15246;SDS011;7726;48.820;9.248;2022-10-14T13:17:28;2.42;;;1.90;;
15246;SDS011;7726;48.820;9.248;2022-10-14T13:19:56;2.55;;;2.00;;
15246;SDS011;7726;48.820;9.248;2022-10-14T13:22:38;2.83;;;1.85;;
15246;SDS011;7726;48.820;9.248;2022-10-14T13:25:17;2.47;;;1.92;;
15246;SDS011;7726;48.820;9.248;2022-10-14T13:28:02;3.08;;;1.63;;
15246;SDS011;7726;48.820;9.248;2022-10-14T13:30:34;3.05;;;1.88;;
15246;SDS011;7726;48.820;9.248;2022-10-14T13:33:03;3.30;;;1.95;;
15246;SDS011;7726;48.820;9.248;2022-10-14T13:35:36;6.78;;;1.80;;
15246;SDS011;7726;48.820;9.248;2022-10-14T13:38:11;2.13;;;1.73;;
15246;SDS011;7726;48.820;9.248;2022-10-14T13:40:43;2.97;;;1.55;;
15246;SDS011;7726;48.820;9.248;2022-10-14T13:43:12;1.67;;;1.58;;
15246;SDS011;7726;48.820;9.248;2022-10-14T13:45:41;1.50;;;1.40;;
15246;SDS011;7726;48.820;9.248;2022-10-14T13:48:10;2.03;;;1.50;;
15246;SDS011;7726;48.820;9.248;2022-10-14T13:50:39;2.13;;;1.55;;
15246;SDS011;7726;48.820;9.248;2022-10-14T13:53:11;1.65;;;1.50;;
15246;SDS011;7726;48.820;9.248;2022-10-14T13:55:44;2.95;;;1.85;;
15246;SDS011;7726;48.820;9.248;2022-10-14T13:58:12;2.03;;;1.60;;
15246;SDS011;7726;48.820;9.248;2022-10-14T14:00:41;1.50;;;1.40;;
15246;SDS011;7726;48.820;9.248;2022-10-14T14:03:12;1.90;;;1.50;;
15246;SDS011;7726;48.820;9.248;2022-10-14T14:05:41;1.45;;;1.35;;
15246;SDS011;7726;48.820;9.248;2022-10-14T14:08:11;1.48;;;1.27;;
15246;SDS011;7726;48.820;9.248;2022-10-14T14:10:50;3.00;;;1.50;;
15246;SDS011;7726;48.820;9.248;2022-10-14T14:13:17;2.08;;;1.25;;
15246;SDS011;7726;48.820;9.248;2022-10-14T14:15:47;1.40;;;1.30;;
15246;SDS011;7726;48.820;9.248;2022-10-14T14:18:24;1.98;;;1.63;;
15246;SDS011;7726;48.820;9.248;2022-10-14T14:20:54;2.25;;;1.60;;
15246;SDS011;7726;48.820;9.248;2022-10-14T14:23:22;2.45;;;1.48;;
15246;SDS011;7726;48.820;9.248;2022-10-14T14:25:51;1.63;;;1.50;;
15246;SDS011;7726;48.820;9.248;2022-10-14T14:28:18;3.13;;;1.50;;
15246;SDS011;7726;48.820;9.248;2022-10-14T14:30:46;4.57;;;1.63;;
15246;SDS011;7726;48.820;9.248;2022-10-14T14:33:15;3.65;;;2.10;;
15246;SDS011;7726;48.820;9.248;2022-10-14T14:35:49;2.65;;;2.40;;
15246;SDS011;7726;48.820;9.248;2022-10-14T14:38:24;4.72;;;3.10;;
15246;SDS011;7726;48.820;9.248;2022-10-14T14:41:00;2.50;;;2.25;;
15246;SDS011;7726;48.820;9.248;2022-10-14T14:43:28;3.97;;;2.03;;
15246;SDS011;7726;48.820;9.248;2022-10-14T14:45:55;2.65;;;1.80;;
15246;SDS011;7726;48.820;9.248;2022-10-14T14:48:23;4.28;;;2.08;;
15246;SDS011;7726;48.820;9.248;2022-10-14T14:50:50;2.17;;;1.63;;
15246;SDS011;7726;48.820;9.248;2022-10-14T14:53:18;3.55;;;1.90;;
15246;SDS011;7726;48.820;9.248;2022-10-14T14:55:55;2.30;;;1.95;;
15246;SDS011;7726;48.820;9.248;2022-10-14T14:58:27;1.63;;;1.50;;
15246;SDS011;7726;48.820;9.248;2022-10-14T15:00:55;4.93;;;2.25;;
15246;SDS011;7726;48.820;9.248;2022-10-14T15:03:23;2.42;;;1.92;;
15246;SDS011;7726;48.820;9.248;2022-10-14T15:05:52;2.15;;;1.75;;
15246;SDS011;7726;48.820;9.248;2022-10-14T15:08:21;2.70;;;1.98;;
15246;SDS011;7726;48.820;9.248;2022-10-14T15:10:48;3.35;;;2.20;;
15246;SDS011;7726;48.820;9.248;2022-10-14T15:16:00;3.80;;;2.63;;
15246;SDS011;7726;48.820;9.248;2022-10-14T15:18:27;5.50;;;2.58;;
15246;SDS011;7726;48.820;9.248;2022-10-14T15:21:13;2.83;;;2.60;;